Time;durP1;ratioP1;P1;durP2;ratioP2;P2;SDS_P1;SDS_P2;PMS_P1;PMS_P2;Temp;Humidity;BMP_temperature;BMP_pressure;BME280_temperature;BME280_humidity;BME280_pressure;Samples;Min_cycle;Max_cycle;Signal;HPM_P1;HPM_P2
2023/01/16 00:02:09;;;;;;;;;;;;;;;-6.97;26.39;98984.78;6278610;28;19925;-64
2023/01/16 00:05:10;;;;;;;;;;;;;;;-7.19;26.92;98977.97;6272222;28;19925;-63
2023/01/16 00:08:11;;;;;;;;;;;;;;;-7.40;26.85;98972.88;6297122;28;20018;-64
2023/01/16 00:11:15;;;;;;;;;;;;;;;-7.58;27.73;98973.03;6300261;28;20006;-63
2023/01/16 00:14:16;;;;;;;;;;;;;;;-7.59;27.82;98971.28;6299734;28;19932;-62
2023/01/16 00:17:17;;;;;;;;;;;;;;;-7.81;28.06;98972.97;6277200;28;19985;-62
2023/01/16 00:20:18;;;;;;;;;;;;;;;-7.84;28.26;98959.16;6278624;28;19929;-62
2023/01/16 00:23:21;;;;;;;;;;;;;;;-7.97;28.78;98978.25;6273039;28;19928;-63
2023/01/16 00:26:23;;;;;;;;;;;;;;;-7.91;28.48;98973.38;6276487;28;19924;-63
2023/01/16 00:29:24;;;;;;;;;;;;;;;-7.90;28.23;98972.56;6288977;28;19924;-63
2023/01/16 00:32:25;;;;;;;;;;;;;;;-7.68;28.09;98966.66;6277486;28;19925;-63
2023/01/16 00:35:26;;;;;;;;;;;;;;;-7.61;28.42;98972.88;6273362;28;20317;-63
2023/01/16 00:38:27;;;;;;;;;;;;;;;-7.50;27.60;98971.63;6270305;28;19932;-63
2023/01/16 00:41:30;;;;;;;;;;;;;;;-7.39;28.00;98965.25;6279211;28;19924;-63
2023/01/16 00:44:31;;;;;;;;;;;;;;;-7.25;27.46;98963.25;6304680;28;20302;-63
2023/01/16 00:47:34;;;;;;;;;;;;;;;-7.20;27.27;98963.44;6274308;28;20294;-62
2023/01/16 00:50:38;;;;;;;;;;;;;;;-7.05;26.89;98972.59;6272960;28;19931;-63
2023/01/16 00:53:39;;;;;;;;;;;;;;;-6.90;26.36;98962.03;6289097;28;19932;-63
2023/01/16 00:56:45;;;;;;;;;;;;;;;-6.82;26.70;98965.75;6288103;28;19925;-63
2023/01/16 00:59:45;;;;;;;;;;;;;;;-6.92;26.38;98971.34;6285461;28;20390;-63
2023/01/16 01:02:48;;;;;;;;;;;;;;;-6.82;26.52;98969.97;6292129;28;19925;-63
2023/01/16 01:05:48;;;;;;;;;;;;;;;-6.78;26.21;98982.97;6277141;28;19935;-63
2023/01/16 01:08:50;;;;;;;;;;;;;;;-6.74;26.15;98975.41;6278687;28;20616;-63
2023/01/16 01:11:50;;;;;;;;;;;;;;;-6.63;25.07;98982.66;6290600;28;20401;-63
2023/01/16 01:14:51;;;;;;;;;;;;;;;-6.56;24.85;98976.09;6311251;28;19931;-61
2023/01/16 01:17:52;;;;;;;;;;;;;;;-6.61;25.32;98975.03;6293993;28;19934;-62
2023/01/16 01:20:53;;;;;;;;;;;;;;;-6.75;26.05;98966.00;6292087;28;19928;-62
2023/01/16 01:23:55;;;;;;;;;;;;;;;-6.59;25.60;98968.31;6271811;28;19925;-63
2023/01/16 01:26:56;;;;;;;;;;;;;;;-6.62;25.73;98960.50;6275311;28;20393;-63
2023/01/16 01:30:00;;;;;;;;;;;;;;;-6.69;25.25;98950.84;6312100;28;20398;-63
2023/01/16 01:33:03;;;;;;;;;;;;;;;-6.70;25.77;98954.22;6292377;28;19924;-62
2023/01/16 01:36:06;;;;;;;;;;;;;;;-6.72;25.25;98950.72;6296094;28;19925;-62
2023/01/16 01:39:07;;;;;;;;;;;;;;;-6.80;25.46;98940.19;6276215;28;20291;-63
2023/01/16 01:43:11;;;;;;;;;;;;;;;-6.85;25.51;98950.28;6298551;28;19924;-63
2023/01/16 01:45:44;;;;;;;;;;;;;;;-6.82;25.23;98954.63;6297017;28;20373;-63
2023/01/16 01:48:47;;;;;;;;;;;;;;;-6.71;25.48;98952.47;6296568;28;20378;-64
2023/01/16 01:51:49;;;;;;;;;;;;;;;-6.67;25.32;98944.97;6278734;28;19924;-63
2023/01/16 01:54:56;;;;;;;;;;;;;;;-6.72;25.16;98945.63;6296236;28;20030;-63
2023/01/16 01:58:05;;;;;;;;;;;;;;;-6.79;24.98;98949.66;6273880;28;19963;-64
2023/01/16 02:01:35;;;;;;;;;;;;;;;-6.82;25.49;98939.28;6280839;28;19990;-63
2023/01/16 02:04:43;;;;;;;;;;;;;;;-6.62;25.18;98940.03;6277304;28;19921;-64
2023/01/16 02:07:46;;;;;;;;;;;;;;;-6.86;25.30;98937.44;6288957;28;19924;-63
2023/01/16 02:10:47;;;;;;;;;;;;;;;-7.13;25.75;98934.69;6285536;28;20322;-63
2023/01/16 02:13:48;;;;;;;;;;;;;;;-7.07;25.76;98942.63;6295881;28;19928;-64
2023/01/16 02:20:18;;;;;;;;;;;;;;;-6.90;24.68;98949.25;6273484;28;19920;-63
2023/01/16 02:23:33;;;;;;;;;;;;;;;-6.91;25.05;98944.91;6277277;28;20002;-63
2023/01/16 02:26:37;;;;;;;;;;;;;;;-7.01;24.31;98946.28;6283224;28;19929;-63
2023/01/16 02:29:47;;;;;;;;;;;;;;;-7.00;24.25;98959.94;6277891;28;19942;-64
2023/01/16 02:33:03;;;;;;;;;;;;;;;-7.03;24.60;98950.47;6284116;28;19924;-62
2023/01/16 02:36:09;;;;;;;;;;;;;;;-6.99;23.83;98951.47;6290468;28;19924;-63
2023/01/16 02:39:35;;;;;;;;;;;;;;;-6.97;24.11;98949.81;6310320;28;19924;-65
2023/01/16 02:42:44;;;;;;;;;;;;;;;-7.09;23.70;98946.81;6301496;28;19930;-63
2023/01/16 02:46:02;;;;;;;;;;;;;;;-7.25;24.57;98941.09;6297262;28;19932;-63
2023/01/16 02:49:06;;;;;;;;;;;;;;;-7.39;24.70;98944.78;6285226;28;20021;-63
2023/01/16 02:52:33;;;;;;;;;;;;;;;-7.48;24.13;98939.31;6294050;28;19924;-63
2023/01/16 02:55:40;;;;;;;;;;;;;;;-7.49;24.71;98942.72;6271054;28;20398;-63
2023/01/16 02:58:45;;;;;;;;;;;;;;;-7.23;23.46;98934.34;6308400;28;20408;-64
2023/01/16 03:01:49;;;;;;;;;;;;;;;-7.38;23.82;98946.56;6286082;28;19983;-63
2023/01/16 03:04:58;;;;;;;;;;;;;;;-7.11;23.52;98946.72;6273760;28;19921;-63
2023/01/16 03:08:21;;;;;;;;;;;;;;;-7.20;24.04;98945.53;6298072;28;20445;-63
2023/01/16 03:11:24;;;;;;;;;;;;;;;-7.12;23.37;98959.47;6256202;28;20303;-62
2023/01/16 03:14:34;;;;;;;;;;;;;;;-7.11;23.90;98966.34;6277356;28;19924;-63
2023/01/16 03:17:38;;;;;;;;;;;;;;;-7.11;23.82;98986.81;6293924;28;19928;-63
2023/01/16 03:21:14;;;;;;;;;;;;;;;-7.56;24.15;98984.16;6278954;28;19929;-63
2023/01/16 03:24:27;;;;;;;;;;;;;;;-7.79;24.95;98984.09;6216282;28;19925;-62
2023/01/16 03:27:28;;;;;;;;;;;;;;;-8.25;25.16;98992.41;6284530;28;20305;-63
2023/01/16 03:30:32;;;;;;;;;;;;;;;-8.72;25.67;98996.31;6301989;28;19944;-63
2023/01/16 03:33:43;;;;;;;;;;;;;;;-8.96;26.43;98982.47;6277269;28;19953;-63
2023/01/16 03:36:49;;;;;;;;;;;;;;;-9.02;26.21;99002.59;6294017;28;19924;-62
2023/01/16 03:39:53;;;;;;;;;;;;;;;-8.46;25.92;98991.50;6282080;28;20031;-64
2023/01/16 03:43:01;;;;;;;;;;;;;;;-8.21;24.97;98989.19;6289848;28;20089;-62
2023/01/16 03:46:10;;;;;;;;;;;;;;;-8.26;25.00;98985.56;6279850;28;19932;-63
2023/01/16 03:49:13;;;;;;;;;;;;;;;-8.44;25.11;98994.97;6288119;28;19931;-63
2023/01/16 03:52:17;;;;;;;;;;;;;;;-8.59;25.35;99001.16;6288388;28;19925;-63
2023/01/16 03:55:23;;;;;;;;;;;;;;;-8.74;25.53;98995.38;6291373;28;19924;-63
2023/01/16 03:58:38;;;;;;;;;;;;;;;-9.07;26.36;99005.78;6295430;28;19939;-63
2023/01/16 04:02:00;;;;;;;;;;;;;;;-9.15;26.58;99002.00;6288199;28;20043;-63
2023/01/16 04:05:04;;;;;;;;;;;;;;;-9.25;26.83;99004.94;6296768;28;19924;-63
2023/01/16 04:08:13;;;;;;;;;;;;;;;-9.32;26.75;99002.88;6277715;28;20449;-63
2023/01/16 04:11:16;;;;;;;;;;;;;;;-9.36;27.06;99011.19;6282791;28;19924;-63
2023/01/16 04:14:19;;;;;;;;;;;;;;;-9.23;26.71;99002.44;6299901;28;19924;-62
2023/01/16 04:17:24;;;;;;;;;;;;;;;-9.42;26.75;99005.81;6285542;28;20309;-63
2023/01/16 04:20:28;;;;;;;;;;;;;;;-9.65;27.11;99012.31;6302820;28;19920;-64
2023/01/16 04:23:31;;;;;;;;;;;;;;;-9.55;27.04;99000.09;6297817;28;19924;-63
2023/01/16 04:26:37;;;;;;;;;;;;;;;-9.53;26.96;99002.75;6280403;28;19920;-63
2023/01/16 04:29:38;;;;;;;;;;;;;;;-9.67;26.94;99003.75;6281901;28;19932;-63
2023/01/16 04:32:39;;;;;;;;;;;;;;;-9.87;27.69;99002.78;6279227;28;20203;-64
2023/01/16 04:35:42;;;;;;;;;;;;;;;-9.91;27.83;99003.41;6301737;28;20394;-62
2023/01/16 04:38:43;;;;;;;;;;;;;;;-9.89;28.06;99001.81;6300968;28;19956;-63
2023/01/16 04:41:50;;;;;;;;;;;;;;;-9.94;27.91;99007.53;6276314;28;19924;-63
2023/01/16 04:44:53;;;;;;;;;;;;;;;-9.94;27.95;99007.53;6282318;28;20286;-63
2023/01/16 04:47:55;;;;;;;;;;;;;;;-9.78;27.81;99008.31;6291722;28;20302;-63
2023/01/16 04:50:58;;;;;;;;;;;;;;;-9.83;27.81;99004.66;6285784;28;20039;-63
2023/01/16 04:54:05;;;;;;;;;;;;;;;-9.74;27.50;99005.09;6276422;28;19932;-62
2023/01/16 04:57:11;;;;;;;;;;;;;;;-9.75;27.69;99005.91;6278709;28;19924;-63
2023/01/16 05:00:12;;;;;;;;;;;;;;;-9.27;27.17;99009.09;6279033;28;19925;-63
2023/01/16 05:03:15;;;;;;;;;;;;;;;-8.98;26.56;99012.13;6272994;28;20290;-63
2023/01/16 05:06:18;;;;;;;;;;;;;;;-9.31;26.50;99007.19;6278342;28;20382;-62
2023/01/16 05:09:19;;;;;;;;;;;;;;;-9.42;26.82;99011.78;6280260;28;19929;-62
2023/01/16 05:12:22;;;;;;;;;;;;;;;-9.60;27.20;99015.97;6284981;28;19924;-62
2023/01/16 05:15:26;;;;;;;;;;;;;;;-9.65;27.46;99010.69;6288076;28;20349;-63
2023/01/16 05:18:28;;;;;;;;;;;;;;;-9.76;27.96;99009.28;6290495;28;19931;-63
2023/01/16 05:21:30;;;;;;;;;;;;;;;-9.74;28.08;99002.56;6277349;28;19924;-63
2023/01/16 05:24:31;;;;;;;;;;;;;;;-9.53;28.11;99001.06;6282581;28;19925;-62
2023/01/16 05:27:34;;;;;;;;;;;;;;;-9.43;28.13;99002.38;6307410;28;20373;-63
2023/01/16 05:30:40;;;;;;;;;;;;;;;-9.53;28.32;98998.50;6300531;28;20382;-62
2023/01/16 05:33:41;;;;;;;;;;;;;;;-9.40;28.33;99004.19;6286022;28;20413;-62
2023/01/16 05:36:44;;;;;;;;;;;;;;;-9.18;27.68;99006.97;6298393;28;19924;-63
2023/01/16 05:39:47;;;;;;;;;;;;;;;-9.09;27.97;99007.38;6277009;28;19931;-63
2023/01/16 05:42:48;;;;;;;;;;;;;;;-8.95;27.76;99007.16;6285155;28;20414;-64
2023/01/16 05:45:49;;;;;;;;;;;;;;;-8.64;27.29;99006.88;6287050;28;20006;-63
2023/01/16 05:48:55;;;;;;;;;;;;;;;-8.68;27.24;98988.00;6284749;28;19925;-64
2023/01/16 05:51:56;;;;;;;;;;;;;;;-8.63;27.20;98999.28;6295835;28;19924;-63
2023/01/16 05:55:02;;;;;;;;;;;;;;;-8.57;27.00;98997.81;6298258;28;19928;-62
2023/01/16 05:58:05;;;;;;;;;;;;;;;-8.51;26.83;98998.97;6285331;28;19924;-62
2023/01/16 06:01:09;;;;;;;;;;;;;;;-8.38;27.32;99001.22;6283384;28;20426;-63
2023/01/16 06:04:10;;;;;;;;;;;;;;;-8.30;26.75;99004.09;6284807;28;19931;-63
2023/01/16 06:07:15;;;;;;;;;;;;;;;-8.30;26.72;98996.44;6284629;28;19928;-64
2023/01/16 06:10:16;;;;;;;;;;;;;;;-8.28;27.05;99002.47;6282531;28;19959;-62
2023/01/16 06:13:20;;;;;;;;;;;;;;;-8.21;27.21;98994.28;6295249;28;19925;-62
2023/01/16 06:16:22;;;;;;;;;;;;;;;-8.06;27.19;98998.31;6284063;28;20455;-63
2023/01/16 06:19:26;;;;;;;;;;;;;;;-8.15;27.16;98998.78;6282848;28;20306;-62
2023/01/16 06:22:32;;;;;;;;;;;;;;;-8.21;27.56;98993.38;6279718;28;19924;-63
2023/01/16 06:25:36;;;;;;;;;;;;;;;-8.03;27.75;98993.31;6291084;28;19931;-62
2023/01/16 06:28:40;;;;;;;;;;;;;;;-8.15;27.46;98997.09;6286991;28;20307;-63
2023/01/16 06:31:40;;;;;;;;;;;;;;;-7.94;26.78;98992.00;6281679;28;19925;-63
2023/01/16 06:34:42;;;;;;;;;;;;;;;-8.07;26.32;98991.44;6280644;28;19931;-63
2023/01/16 06:37:45;;;;;;;;;;;;;;;-8.27;26.82;98993.13;6274408;28;20051;-62
2023/01/16 06:40:46;;;;;;;;;;;;;;;-8.19;26.78;98996.91;6279409;28;19946;-62
2023/01/16 06:43:49;;;;;;;;;;;;;;;-8.19;26.71;98997.75;6278456;28;19924;-63
2023/01/16 06:46:49;;;;;;;;;;;;;;;-8.22;26.33;98996.75;6291906;28;19932;-63
2023/01/16 06:49:53;;;;;;;;;;;;;;;-8.13;25.93;98982.69;6296049;28;19925;-64
2023/01/16 06:52:54;;;;;;;;;;;;;;;-7.94;25.99;98996.25;6302320;28;19924;-62
2023/01/16 06:55:57;;;;;;;;;;;;;;;-8.14;25.73;98980.97;6305669;28;19932;-66
2023/01/16 06:59:03;;;;;;;;;;;;;;;-8.15;25.86;98984.34;6278770;28;19924;-66
2023/01/16 07:02:07;;;;;;;;;;;;;;;-8.36;26.91;98989.38;6277864;28;19932;-66
2023/01/16 07:05:09;;;;;;;;;;;;;;;-8.11;26.73;98981.91;6297539;28;19925;-65
2023/01/16 07:08:13;;;;;;;;;;;;;;;-7.79;26.71;98984.09;6299955;28;19974;-65
2023/01/16 07:11:14;;;;;;;;;;;;;;;-7.66;26.03;98979.50;6304863;28;19931;-67
2023/01/16 07:24:29;;;;;;;;;;;;;;;-6.44;25.60;98984.22;6282054;28;19933;-69
2023/01/16 07:27:30;;;;;;;;;;;;;;;-2.63;22.89;98974.47;6286594;28;19921;-66
2023/01/16 07:30:31;;;;;;;;;;;;;;;2.57;19.74;98983.72;6298482;28;19928;-67
2023/01/16 07:33:37;;;;;;;;;;;;;;;7.46;17.07;98985.56;6305085;28;20390;-68
2023/01/16 07:36:41;;;;;;;;;;;;;;;11.57;15.46;98991.25;6295341;28;19928;-69
2023/01/16 07:39:45;;;;;;;;;;;;;;;13.80;13.12;98996.59;6307717;28;20066;-64
2023/01/16 07:42:45;;;;;;;;;;;;;;;16.17;12.59;98992.13;6297350;28;19932;-67
2023/01/16 07:45:52;;;;;;;;;;;;;;;18.22;12.85;98999.84;6276073;28;20397;-67
2023/01/16 07:48:56;;;;;;;;;;;;;;;19.76;12.20;98996.06;6279367;28;19924;-67
2023/01/16 07:51:57;;;;;;;;;;;;;;;20.47;9.16;98991.97;6290751;28;20310;-66
2023/01/16 07:55:00;;;;;;;;;;;;;;;20.89;11.76;98997.88;6278016;28;20026;-67
2023/01/16 07:58:04;;;;;;;;;;;;;;;22.20;12.28;98996.91;6292882;28;19924;-65
2023/01/16 08:01:07;;;;;;;;;;;;;;;24.39;11.97;98997.44;6287610;28;19924;-66
2023/01/16 08:04:11;;;;;;;;;;;;;;;26.22;7.48;98988.84;6283596;28;19947;-65
2023/01/16 08:07:14;;;;;;;;;;;;;;;26.83;11.19;98987.44;6291334;28;20337;-67
2023/01/16 08:10:15;;;;;;;;;;;;;;;26.97;9.52;98986.06;6321810;28;19938;-68
2023/01/16 08:13:19;;;;;;;;;;;;;;;27.15;12.12;98976.16;6293281;28;19932;-65
2023/01/16 08:16:20;;;;;;;;;;;;;;;27.79;11.73;98973.34;6282423;28;19946;-66
2023/01/16 08:19:24;;;;;;;;;;;;;;;27.71;9.13;98966.88;6282134;28;20322;-66
2023/01/16 08:22:28;;;;;;;;;;;;;;;26.23;10.45;98963.53;6286316;28;19931;-67
2023/01/16 08:25:31;;;;;;;;;;;;;;;25.86;9.75;98961.69;6295913;28;19924;-69
2023/01/16 08:28:32;;;;;;;;;;;;;;;25.66;6.97;98960.00;6272581;28;19932;-68
2023/01/16 08:31:35;;;;;;;;;;;;;;;26.40;10.53;98965.47;6274105;28;20398;-69
2023/01/16 08:34:41;;;;;;;;;;;;;;;27.08;6.11;98965.09;6270150;28;20306;-68
2023/01/16 08:37:47;;;;;;;;;;;;;;;26.77;10.20;98970.00;6275241;28;19971;-64
2023/01/16 08:40:51;;;;;;;;;;;;;;;27.33;9.65;98968.06;6295050;28;20116;-64
2023/01/16 08:53:57;;;;;;;;;;;;;;;27.10;9.26;98962.25;6287971;28;19924;-64
2023/01/16 08:57:01;;;;;;;;;;;;;;;27.49;8.21;98952.00;6272555;28;20250;-65
2023/01/16 09:00:03;;;;;;;;;;;;;;;27.62;9.73;98956.97;6286963;28;20002;-65
2023/01/16 09:03:04;;;;;;;;;;;;;;;27.34;8.07;98958.09;6275981;28;19928;-66
2023/01/16 09:06:08;;;;;;;;;;;;;;;26.88;10.16;98953.56;6293650;28;20032;-66
2023/01/16 09:09:09;;;;;;;;;;;;;;;27.03;8.96;98951.19;6287295;28;19928;-66
2023/01/16 09:15:37;;;;;;;;;;;;;;;27.16;8.67;98940.03;6281078;28;20480;-65
2023/01/16 09:18:38;;;;;;;;;;;;;;;26.49;6.78;98938.56;6285648;28;19932;-65
2023/01/16 09:21:40;;;;;;;;;;;;;;;25.76;9.14;98941.97;6282742;28;19935;-64
2023/01/16 09:24:41;;;;;;;;;;;;;;;26.05;9.88;98938.34;6269949;28;20039;-65
2023/01/16 09:27:46;;;;;;;;;;;;;;;26.13;9.49;98946.56;6268723;28;19948;-65
2023/01/16 09:30:47;;;;;;;;;;;;;;;25.40;9.45;98932.78;6282560;28;20291;-64
2023/01/16 09:33:49;;;;;;;;;;;;;;;24.77;10.38;98930.44;6288018;28;19931;-65
2023/01/16 09:36:55;;;;;;;;;;;;;;;24.05;8.98;98924.25;6290277;28;20275;-65
2023/01/16 09:39:56;;;;;;;;;;;;;;;22.94;9.63;98919.34;6284208;28;19925;-65
2023/01/16 09:46:31;;;;;;;;;;;;;;;22.93;8.77;98924.81;6291022;28;19932;-66
2023/01/16 09:49:55;;;;;;;;;;;;;;;22.85;9.77;98918.28;6293891;28;20362;-65
2023/01/16 09:59:51;;;;;;;;;;;;;;;21.65;8.93;98920.78;6274591;28;19932;-66
2023/01/16 10:02:55;;;;;;;;;;;;;;;20.35;9.04;98905.47;6287978;28;19925;-66
2023/01/16 10:06:09;;;;;;;;;;;;;;;19.34;9.09;98907.22;6285133;28;19928;-65
2023/01/16 10:09:27;;;;;;;;;;;;;;;17.73;8.29;98913.13;6303980;28;19930;-65
2023/01/16 10:12:32;;;;;;;;;;;;;;;15.60;9.12;98909.31;6281309;28;20274;-67
2023/01/16 10:15:39;;;;;;;;;;;;;;;14.88;9.14;98906.84;6290601;28;19924;-66
2023/01/16 10:18:50;;;;;;;;;;;;;;;14.70;9.57;98903.34;6287727;28;19931;-66
2023/01/16 10:22:00;;;;;;;;;;;;;;;14.03;9.24;98910.03;6273142;28;19935;-65
2023/01/16 10:25:19;;;;;;;;;;;;;;;13.15;9.48;98907.75;6284970;28;19982;-65
2023/01/16 10:28:36;;;;;;;;;;;;;;;13.14;9.45;98911.31;6288959;28;19925;-64
2023/01/16 10:31:42;;;;;;;;;;;;;;;10.41;10.72;98906.44;6274578;28;19925;-64
2023/01/16 10:35:06;;;;;;;;;;;;;;;8.64;11.62;98901.78;6275599;28;19955;-66
2023/01/16 10:38:27;;;;;;;;;;;;;;;6.31;12.46;98902.00;6249819;28;19946;-65
2023/01/16 10:51:52;;;;;;;;;;;;;;;-1.53;17.50;98906.88;6278471;28;20405;-70
2023/01/16 10:54:55;;;;;;;;;;;;;;;-2.38;18.59;98914.84;6287167;28;19939;-66
2023/01/16 10:57:58;;;;;;;;;;;;;;;-3.00;18.67;98917.03;6285560;28;19928;-74
2023/01/16 11:01:09;;;;;;;;;;;;;;;-3.27;18.75;98915.59;6289628;28;20429;-71
2023/01/16 11:04:17;;;;;;;;;;;;;;;-3.41;19.80;98914.41;6293632;28;19927;-67
2023/01/16 11:07:19;;;;;;;;;;;;;;;-3.83;19.98;98915.09;6291278;28;19925;-72
2023/01/16 11:10:21;;;;;;;;;;;;;;;-4.28;20.06;98918.22;6276563;28;19924;-77
2023/01/16 11:20:15;;;;;;;;;;;;;;;-4.59;20.72;98925.09;6289088;28;20313;-76
2023/01/16 11:23:19;;;;;;;;;;;;;;;-4.92;21.61;98934.44;6281413;28;19924;-69
2023/01/16 11:26:21;;;;;;;;;;;;;;;-5.16;21.99;98920.00;6287437;28;20421;-71
2023/01/16 11:29:24;;;;;;;;;;;;;;;-5.53;21.78;98936.84;6282054;28;19947;-75
2023/01/16 11:32:34;;;;;;;;;;;;;;;-5.59;21.60;98934.09;6291615;28;19931;-73
2023/01/16 11:35:38;;;;;;;;;;;;;;;-5.62;21.38;98940.81;6298522;28;19931;-77
2023/01/16 11:38:44;;;;;;;;;;;;;;;-5.66;23.04;98939.84;6279043;28;19925;-73
2023/01/16 11:41:47;;;;;;;;;;;;;;;-5.66;22.38;98952.69;6295361;28;19924;-75
2023/01/16 11:48:25;;;;;;;;;;;;;;;-5.99;22.25;98949.91;6277406;28;19931;-65
2023/01/16 11:51:28;;;;;;;;;;;;;;;-6.24;22.98;98943.06;6272827;28;20405;-67
2023/01/16 11:54:32;;;;;;;;;;;;;;;-6.45;23.21;98943.19;6283044;28;20070;-67
2023/01/16 11:57:40;;;;;;;;;;;;;;;-6.61;22.94;98950.31;6276840;28;19924;-67
2023/01/16 12:00:44;;;;;;;;;;;;;;;-6.53;23.53;98942.91;6276201;28;20597;-67
2023/01/16 12:03:56;;;;;;;;;;;;;;;-6.80;24.33;98953.88;6290251;28;20289;-63
2023/01/16 12:07:00;;;;;;;;;;;;;;;-7.25;24.26;98947.91;6275255;28;19924;-63
2023/01/16 12:10:09;;;;;;;;;;;;;;;-7.54;24.39;98941.66;6294188;28;20313;-65
2023/01/16 12:16:35;;;;;;;;;;;;;;;-7.87;24.65;98949.69;6270722;28;19924;-63
2023/01/16 12:19:54;;;;;;;;;;;;;;;-8.03;24.39;98947.34;6271487;28;19925;-63
2023/01/16 12:22:55;;;;;;;;;;;;;;;-8.19;24.38;98949.22;6304135;28;19927;-63
2023/01/16 12:26:08;;;;;;;;;;;;;;;-8.36;24.54;98945.97;6319741;28;20018;-63
2023/01/16 12:29:47;;;;;;;;;;;;;;;-8.56;25.35;98940.84;6317027;28;19925;-62
2023/01/16 12:33:12;;;;;;;;;;;;;;;-8.84;25.21;98931.97;6193990;28;19926;-63
2023/01/16 12:36:15;;;;;;;;;;;;;;;-9.09;26.06;98935.97;6190806;28;20024;-64
2023/01/16 12:39:22;;;;;;;;;;;;;;;-9.29;25.76;98941.84;6319286;28;20401;-64
2023/01/16 12:45:49;;;;;;;;;;;;;;;-9.70;26.26;98948.44;6286398;28;19930;-63
2023/01/16 12:49:11;;;;;;;;;;;;;;;-9.84;26.49;98950.31;6314501;28;20063;-63
2023/01/16 12:52:35;;;;;;;;;;;;;;;-9.94;26.61;98946.41;6281241;28;20086;-63
2023/01/16 12:55:54;;;;;;;;;;;;;;;-10.05;26.77;98957.75;6252141;28;20022;-63
2023/01/16 12:59:02;;;;;;;;;;;;;;;-10.14;26.81;98962.41;6293144;28;19925;-63
2023/01/16 13:02:12;;;;;;;;;;;;;;;-10.26;27.35;98964.34;6278761;28;19936;-62
2023/01/16 13:05:18;;;;;;;;;;;;;;;-10.40;27.29;98956.91;6269488;28;20015;-64
2023/01/16 13:08:22;;;;;;;;;;;;;;;-10.48;27.28;98962.41;6313174;28;19936;-64
2023/01/16 13:14:51;;;;;;;;;;;;;;;-10.21;28.36;98965.44;6270090;28;19925;-65
2023/01/16 13:17:58;;;;;;;;;;;;;;;-10.20;28.42;98970.59;6302015;28;19924;-63
2023/01/16 13:21:02;;;;;;;;;;;;;;;-10.19;28.61;98966.38;6284965;28;19951;-62
2023/01/16 13:24:09;;;;;;;;;;;;;;;-10.29;28.95;98969.31;6284184;28;20585;-63
2023/01/16 13:27:17;;;;;;;;;;;;;;;-10.52;28.82;98979.19;6277848;28;19924;-63
2023/01/16 13:30:19;;;;;;;;;;;;;;;-10.65;28.39;98982.75;6270632;28;20389;-66
2023/01/16 13:33:24;;;;;;;;;;;;;;;-10.73;28.02;98983.16;6279188;28;20408;-63
2023/01/16 13:36:28;;;;;;;;;;;;;;;-10.65;28.94;98979.34;6294363;28;19924;-63
2023/01/16 13:39:32;;;;;;;;;;;;;;;-10.42;29.98;98978.84;6322535;28;19928;-63
2023/01/16 13:42:38;;;;;;;;;;;;;;;-10.64;30.57;98976.03;6276962;28;19940;-73
2023/01/16 13:45:49;;;;;;;;;;;;;;;-10.62;30.80;98984.59;6281037;28;19924;-63
2023/01/16 13:48:53;;;;;;;;;;;;;;;-10.83;30.66;98984.34;6265969;28;19929;-63
2023/01/16 13:51:54;;;;;;;;;;;;;;;-11.13;30.69;98984.44;6288935;28;19924;-62
2023/01/16 13:54:58;;;;;;;;;;;;;;;-11.22;30.41;98981.41;6297510;28;20405;-63
2023/01/16 13:58:18;;;;;;;;;;;;;;;-11.37;30.65;98976.38;6293635;28;20437;-62
2023/01/16 14:01:39;;;;;;;;;;;;;;;-11.54;30.16;98980.53;6283992;28;19924;-62
2023/01/16 14:04:41;;;;;;;;;;;;;;;-11.68;30.23;98978.03;6295130;28;19928;-62
2023/01/16 14:11:13;;;;;;;;;;;;;;;-11.88;30.43;98987.97;6323445;28;20022;-63
2023/01/16 14:17:49;;;;;;;;;;;;;;;-11.94;31.34;98991.78;6307776;28;19925;-62
2023/01/16 14:20:51;;;;;;;;;;;;;;;-12.04;30.48;98990.41;6281786;28;20465;-62
2023/01/16 14:24:00;;;;;;;;;;;;;;;-12.17;30.60;98982.88;6306709;28;19977;-64
2023/01/16 14:27:04;;;;;;;;;;;;;;;-12.30;30.59;98997.38;6314098;28;20488;-65
2023/01/16 14:30:16;;;;;;;;;;;;;;;-12.38;30.60;98993.53;6297279;28;19925;-63
2023/01/16 14:33:18;;;;;;;;;;;;;;;-12.47;30.94;98992.97;6284571;28;20302;-62
2023/01/16 14:36:21;;;;;;;;;;;;;;;-12.54;30.54;98991.75;6273594;28;19925;-64
2023/01/16 14:39:26;;;;;;;;;;;;;;;-12.61;30.99;98998.91;6290300;28;19928;-63
2023/01/16 14:56:29;;;;;;;;;;;;;;;-13.06;31.53;99003.81;6294685;28;20016;-66
2023/01/16 14:59:33;;;;;;;;;;;;;;;-13.11;30.91;99003.50;6286772;28;19979;-65
2023/01/16 15:02:40;;;;;;;;;;;;;;;-13.15;31.29;99003.25;6293693;28;20341;-65
2023/01/16 15:05:50;;;;;;;;;;;;;;;-13.20;31.66;99005.47;6294847;28;19927;-65
2023/01/16 15:08:53;;;;;;;;;;;;;;;-13.23;31.51;99005.28;6283165;28;20433;-65
2023/01/16 15:11:58;;;;;;;;;;;;;;;-13.30;32.46;99005.75;6291638;28;19921;-65
2023/01/16 15:15:02;;;;;;;;;;;;;;;-13.31;31.70;99015.75;6289165;28;19924;-66
2023/01/16 15:24:48;;;;;;;;;;;;;;;-13.45;31.73;99022.47;6292875;28;20065;-65
2023/01/16 15:27:57;;;;;;;;;;;;;;;-13.52;31.92;99022.91;6290935;28;20016;-65
2023/01/16 15:31:00;;;;;;;;;;;;;;;-13.60;31.98;99022.41;6281354;28;19931;-65
2023/01/16 15:34:12;;;;;;;;;;;;;;;-13.67;31.61;99026.19;6278563;28;19924;-64
2023/01/16 15:37:23;;;;;;;;;;;;;;;-13.72;32.21;99027.56;6287006;28;19963;-66
2023/01/16 15:40:28;;;;;;;;;;;;;;;-13.75;32.35;99017.22;6288305;28;20378;-67
2023/01/16 15:46:58;;;;;;;;;;;;;;;-13.83;32.75;99013.34;6273543;28;19931;-66
2023/01/16 15:50:05;;;;;;;;;;;;;;;-13.84;32.27;99026.75;6272871;28;19924;-66
2023/01/16 15:53:06;;;;;;;;;;;;;;;-13.83;32.24;99018.41;6283797;28;20210;-65
2023/01/16 15:56:30;;;;;;;;;;;;;;;-13.85;32.25;99010.69;6269784;28;19924;-66
2023/01/16 15:59:35;;;;;;;;;;;;;;;-13.88;32.95;99020.63;6269845;28;19932;-66
2023/01/16 16:02:41;;;;;;;;;;;;;;;-13.82;31.92;99015.06;6284156;28;19924;-67
2023/01/16 16:05:46;;;;;;;;;;;;;;;-13.79;32.92;99025.38;6278969;28;20293;-66
2023/01/16 16:08:53;;;;;;;;;;;;;;;-13.80;33.05;99023.66;6279572;28;19936;-63
2023/01/16 16:11:55;;;;;;;;;;;;;;;-13.85;32.61;99036.00;6277446;28;20015;-63
2023/01/16 16:18:50;;;;;;;;;;;;;;;-14.03;33.09;99033.16;6272620;28;19925;-64
2023/01/16 16:25:18;;;;;;;;;;;;;;;-14.09;32.55;99024.28;6277576;28;19928;-64
2023/01/16 16:28:25;;;;;;;;;;;;;;;-14.10;34.25;99027.56;6299216;28;19924;-64
2023/01/16 16:31:31;;;;;;;;;;;;;;;-14.13;33.03;99028.25;6292021;28;19924;-67
2023/01/16 16:34:32;;;;;;;;;;;;;;;-14.19;33.31;99032.91;6281547;28;20011;-67
2023/01/16 16:37:33;;;;;;;;;;;;;;;-14.26;33.29;99033.28;6271204;28;19931;-66
2023/01/16 16:40:35;;;;;;;;;;;;;;;-14.34;33.42;99034.44;6299491;28;19928;-69
2023/01/16 16:43:46;;;;;;;;;;;;;;;-14.44;33.98;99030.38;6275692;28;19925;-70
2023/01/16 16:46:50;;;;;;;;;;;;;;;-14.52;33.73;99029.03;6286088;28;19947;-69
2023/01/16 16:49:55;;;;;;;;;;;;;;;-14.59;34.75;99027.75;6273967;28;19985;-68
2023/01/16 16:53:05;;;;;;;;;;;;;;;-14.63;33.70;99033.38;6319072;28;19924;-69
2023/01/16 16:56:09;;;;;;;;;;;;;;;-14.74;33.75;99026.72;6316130;28;19924;-70
2023/01/16 16:59:17;;;;;;;;;;;;;;;-14.84;33.75;99021.81;6318515;28;19924;-69
2023/01/16 17:02:18;;;;;;;;;;;;;;;-14.94;34.09;99016.13;6319276;28;19931;-69
2023/01/16 17:05:22;;;;;;;;;;;;;;;-15.02;33.92;99009.66;6307018;28;20005;-71
2023/01/16 17:08:29;;;;;;;;;;;;;;;-15.09;33.75;99002.44;6299184;28;19929;-70
2023/01/16 17:11:35;;;;;;;;;;;;;;;-15.10;34.03;99003.22;6310125;28;19924;-70
2023/01/16 17:14:36;;;;;;;;;;;;;;;-15.09;34.54;99011.66;6324171;28;19998;-69
2023/01/16 17:17:38;;;;;;;;;;;;;;;-15.05;33.98;99006.94;6278863;28;19933;-69
2023/01/16 17:20:39;;;;;;;;;;;;;;;-14.95;34.07;99009.28;6308769;28;19936;-70
2023/01/16 17:23:40;;;;;;;;;;;;;;;-14.82;33.72;99011.03;6301301;28;19924;-70
2023/01/16 17:26:43;;;;;;;;;;;;;;;-14.85;33.55;99009.94;6284336;28;20351;-68
2023/01/16 17:29:48;;;;;;;;;;;;;;;-14.85;33.69;99012.47;6292626;28;20019;-68
2023/01/16 17:32:57;;;;;;;;;;;;;;;-14.81;34.06;99011.91;6297918;28;19935;-68
2023/01/16 17:36:09;;;;;;;;;;;;;;;-14.43;34.40;99017.00;6288492;28;19924;-73
2023/01/16 17:39:15;;;;;;;;;;;;;;;-14.38;33.66;99015.63;6291917;28;19948;-70
2023/01/16 17:48:46;;;;;;;;;;;;;;;-14.37;34.05;99012.34;6301528;28;20015;-70
2023/01/16 17:51:50;;;;;;;;;;;;;;;-14.29;35.13;99016.25;6302669;28;19924;-69
2023/01/16 17:58:17;;;;;;;;;;;;;;;-14.56;35.10;99027.09;6290591;28;19925;-69
2023/01/16 18:01:25;;;;;;;;;;;;;;;-14.75;35.47;99027.47;6293736;28;20023;-68